EDDW Airport Information

Runway Information
Runway 05 Length 2297 ft width 75 ft
Elevation 0 ft Threshold 0 ft Heading 52
Runway 23 Length 2297 ft Width 75 ft
Elevation 13 ft Threshold 0 ft Heading 232
Runway 09 Length 6693 ft width 148 ft
Elevation 13 ft Threshold 0 ft Heading 88
Runway 27 Length 6693 ft Width 148 ft
Elevation 14 ft Threshold 0 ft Heading 268
Airport Frequencies
Type AFIS Name INFO Frequency 125.1 MHZ
Type APP Name RADAR Frequency 124.8 MHZ
Type ATIS Name ATIS Frequency 117.45 MHZ
Type GND Name GND Frequency 121.75 MHZ
Type TWR Name TWR Frequency 120.325 MHZ
Airport Navaids
Type VOR-DME Name Bremen Frequency 117450 KHZ
Airport Weather Information & NOTAM
ADDS - METARS form results

(0145 UTC 19 January 2018)
 
METAR text: EDDW 190120Z 25008KT 9999 SCT040 01/00 Q1001 R88/290095
Conditions at: EDDW (BREMEN , DE) observed 0120 UTC 19 January 2018
Temperature: 1.0°C (34°F)
Dewpoint: 0.0°C (32°F) [RH = 93%]
Pressure (altimeter): 29.56 inches Hg (1001.0 mb)
Winds: from the WSW (250 degrees) at 9 MPH (8 knots; 4.2 m/s)
Visibility: 6 or more miles (10+ km)
Ceiling: at least 12,000 feet AGL
Clouds: scattered clouds at 4000 feet AGL
Weather: no significant weather observed at this time

METAR text: EDDW 190050Z 25007KT 9999 SCT040 01/00 Q1001 R88/290095
Conditions at: EDDW (BREMEN , DE) observed 0050 UTC 19 January 2018
Temperature: 1.0°C (34°F)
Dewpoint: 0.0°C (32°F) [RH = 93%]
Pressure (altimeter): 29.56 inches Hg (1001.0 mb)
Winds: from the WSW (250 degrees) at 8 MPH (7 knots; 3.6 m/s)
Visibility: 6 or more miles (10+ km)
Ceiling: at least 12,000 feet AGL
Clouds: scattered clouds at 4000 feet AGL
Weather: no significant weather observed at this time